createdAt,value
2024-04-25T00:02:21.714Z,0.60
2024-04-25T00:04:54.535Z,0.60
2024-04-25T00:07:24.704Z,0.60
2024-04-25T00:09:55.056Z,0.53
2024-04-25T00:12:25.270Z,0.60
2024-04-25T00:14:55.500Z,0.60
2024-04-25T00:17:25.656Z,0.60
2024-04-25T00:19:58.504Z,0.60
2024-04-25T00:22:28.846Z,0.60
2024-04-25T00:25:00.463Z,0.60
2024-04-25T00:27:30.663Z,0.60
2024-04-25T00:30:01.144Z,0.60
2024-04-25T00:32:31.514Z,0.60
2024-04-25T00:35:04.798Z,0.60
2024-04-25T00:37:35.045Z,0.60
2024-04-25T00:40:06.039Z,0.60
2024-04-25T00:42:36.252Z,0.60
2024-04-25T00:45:06.634Z,0.60
2024-04-25T00:47:37.132Z,0.60
2024-04-25T00:50:11.261Z,0.60
2024-04-25T00:52:41.687Z,0.60
2024-04-25T00:55:12.724Z,0.60
2024-04-25T00:57:43.110Z,0.60
2024-04-25T01:00:15.842Z,0.60
2024-04-25T01:02:47.228Z,0.67
2024-04-25T01:05:20.417Z,0.60
2024-04-25T01:07:50.698Z,0.60
2024-04-25T01:10:20.890Z,0.60
2024-04-25T01:12:51.138Z,0.60
2024-04-25T01:15:21.300Z,0.70
2024-04-25T01:17:51.720Z,0.60
2024-04-25T01:20:24.711Z,0.60
2024-04-25T01:22:56.099Z,0.60
2024-04-25T01:25:29.264Z,0.60
2024-04-25T01:28:07.022Z,0.60
2024-04-25T01:30:38.699Z,0.70
2024-04-25T01:33:09.526Z,0.60
2024-04-25T01:35:40.286Z,0.60
2024-04-25T01:38:10.766Z,0.60
2024-04-25T01:40:46.388Z,0.60
2024-04-25T01:43:16.661Z,0.70
2024-04-25T01:45:46.984Z,0.60
2024-04-25T01:48:19.207Z,0.70
2024-04-25T01:50:51.873Z,0.60
2024-04-25T01:53:22.149Z,0.60
2024-04-25T01:55:55.042Z,0.60
2024-04-25T01:58:25.314Z,0.70
2024-04-25T02:00:55.651Z,0.60
2024-04-25T02:03:27.679Z,0.60
2024-04-25T02:05:57.984Z,0.60
2024-04-25T02:08:28.393Z,0.50
2024-04-25T02:11:01.462Z,0.60
2024-04-25T02:13:31.700Z,0.60
2024-04-25T02:16:01.969Z,0.60
2024-04-25T02:18:32.243Z,0.60
2024-04-25T02:21:20.867Z,0.60
2024-04-25T02:24:07.124Z,0.60
2024-04-25T02:26:40.195Z,0.60
2024-04-25T02:29:10.510Z,0.60
2024-04-25T02:31:41.831Z,0.60
2024-04-25T02:34:12.261Z,0.60
2024-04-25T02:36:42.522Z,0.60
2024-04-25T02:39:10.683Z,0.60
2024-04-25T02:41:43.542Z,0.60
2024-04-25T02:44:13.760Z,0.60
2024-04-25T02:46:41.337Z,0.60
2024-04-25T02:49:11.930Z,0.53
2024-04-25T02:51:41.358Z,0.60
2024-04-25T02:54:11.843Z,0.50
2024-04-25T02:56:42.341Z,0.50
2024-04-25T02:59:12.703Z,0.50
2024-04-25T03:01:40.426Z,0.50
2024-04-25T03:04:12.665Z,0.50
2024-04-25T03:06:40.736Z,0.60
2024-04-25T03:09:12.525Z,0.60
2024-04-25T03:11:42.938Z,0.60
2024-04-25T03:14:13.249Z,0.60
2024-04-25T03:16:40.900Z,0.60
2024-04-25T03:19:13.473Z,0.50
2024-04-25T03:21:41.110Z,0.60
2024-04-25T03:24:11.546Z,0.50
2024-04-25T03:26:39.184Z,0.50
2024-04-25T03:29:12.141Z,0.50
2024-04-25T03:31:44.513Z,0.50
2024-04-25T03:34:14.786Z,0.57
2024-04-25T03:36:45.038Z,0.50
2024-04-25T03:39:21.337Z,0.60
2024-04-25T03:41:51.747Z,0.50
2024-04-25T03:44:24.655Z,0.50
2024-04-25T03:46:54.842Z,0.60
2024-04-25T03:49:25.102Z,0.53
2024-04-25T03:51:55.297Z,0.60
2024-04-25T03:54:27.507Z,0.50
2024-04-25T03:56:58.571Z,0.50
2024-04-25T03:59:31.580Z,0.60
2024-04-25T04:02:01.922Z,0.53
2024-04-25T04:04:32.085Z,0.50
2024-04-25T04:07:02.322Z,0.60
2024-04-25T04:09:32.672Z,0.50
2024-04-25T04:12:04.155Z,0.53
2024-04-25T04:14:37.200Z,0.60
2024-04-25T04:17:07.529Z,1.03
2024-04-25T04:19:37.787Z,0.60
2024-04-25T04:22:08.228Z,0.60
2024-04-25T04:24:38.545Z,0.60
2024-04-25T04:27:08.767Z,0.60
2024-04-25T04:29:42.119Z,0.60
2024-04-25T04:32:12.401Z,0.50
2024-04-25T04:34:45.602Z,0.50
2024-04-25T04:37:15.948Z,0.60
2024-04-25T04:39:49.088Z,0.50
2024-04-25T04:42:19.420Z,0.60
2024-04-25T04:44:52.376Z,0.50
2024-04-25T04:47:25.388Z,0.50
2024-04-25T04:49:55.626Z,0.50
2024-04-25T04:52:27.276Z,0.60
2024-04-25T04:54:57.502Z,0.50
2024-04-25T04:57:27.780Z,0.50
2024-04-25T05:00:00.699Z,0.50
2024-04-25T05:02:31.085Z,0.60
2024-04-25T05:05:01.489Z,0.53
2024-04-25T05:07:31.738Z,0.60
2024-04-25T05:10:06.619Z,0.50
2024-04-25T05:12:37.021Z,0.50
2024-04-25T05:15:12.564Z,0.50
2024-04-25T05:17:43.020Z,0.50
2024-04-25T05:20:13.744Z,0.50
2024-04-25T05:22:44.120Z,0.50
2024-04-25T05:25:14.368Z,0.50
2024-04-25T05:27:44.714Z,0.50
2024-04-25T05:30:17.670Z,0.50
2024-04-25T05:32:48.054Z,0.50
2024-04-25T05:35:21.949Z,0.50
2024-04-25T05:37:52.257Z,0.50
2024-04-25T05:40:25.437Z,0.50
2024-04-25T05:42:56.084Z,0.50
2024-04-25T05:45:29.455Z,0.50
2024-04-25T05:47:59.914Z,0.70
2024-04-25T05:50:30.809Z,0.50
2024-04-25T05:53:01.193Z,0.50
2024-04-25T05:55:32.547Z,0.50
2024-04-25T05:58:02.666Z,0.50
2024-04-25T06:00:35.639Z,0.50
2024-04-25T06:03:06.116Z,0.50
2024-04-25T06:05:36.779Z,1.13
2024-04-25T06:08:15.023Z,1.07
2024-04-25T06:10:47.450Z,0.50
2024-04-25T06:13:22.893Z,0.50
2024-04-25T06:15:56.194Z,0.50
2024-04-25T06:18:37.566Z,0.50
2024-04-25T06:21:09.256Z,0.50
2024-04-25T06:23:39.524Z,1.27
2024-04-25T06:26:10.052Z,0.50
2024-04-25T06:28:40.313Z,0.50
2024-04-25T06:31:13.841Z,0.47
2024-04-25T06:33:44.495Z,0.50
2024-04-25T06:36:14.781Z,0.50
2024-04-25T06:38:47.594Z,0.50
2024-04-25T06:41:46.489Z,0.50
2024-04-25T06:44:29.236Z,0.60
2024-04-25T06:47:04.643Z,0.60
2024-04-25T06:49:34.978Z,0.60
2024-04-25T06:52:05.595Z,0.70
2024-04-25T06:54:38.659Z,0.60
2024-04-25T06:57:11.894Z,0.60
2024-04-25T06:59:45.587Z,0.60
2024-04-25T07:02:20.762Z,0.50
2024-04-25T07:04:51.242Z,0.50
2024-04-25T07:07:33.313Z,0.50
2024-04-25T07:10:04.150Z,0.60
2024-04-25T07:12:37.203Z,0.50
2024-04-25T07:15:08.782Z,0.50
2024-04-25T07:17:40.557Z,0.50
2024-04-25T07:20:11.660Z,0.60
2024-04-25T07:22:41.984Z,0.60
2024-04-25T07:25:13.436Z,0.60
2024-04-25T07:27:46.461Z,0.60
2024-04-25T07:30:19.838Z,0.60
2024-04-25T07:32:50.247Z,0.60
2024-04-25T07:35:20.901Z,0.60
2024-04-25T07:37:51.520Z,0.60
2024-04-25T07:40:21.850Z,0.80
2024-04-25T07:42:57.784Z,1.87
2024-04-25T07:45:29.586Z,1.10
2024-04-25T07:48:12.633Z,1.67
2024-04-25T07:50:43.002Z,0.80
2024-04-25T07:53:13.593Z,1.30
2024-04-25T07:55:44.537Z,1.03
2024-04-25T07:59:16.800Z,1.00
2024-04-25T08:01:52.747Z,1.63
2024-04-25T08:04:24.848Z,1.70
2024-04-25T08:06:55.613Z,1.43
2024-04-25T08:09:26.063Z,2.60
2024-04-25T08:11:56.502Z,2.20
2024-04-25T08:14:26.952Z,1.80
2024-04-25T08:17:00.126Z,1.50
2024-04-25T08:19:31.931Z,1.50
2024-04-25T08:22:02.293Z,1.07
2024-04-25T08:24:32.532Z,0.97
2024-04-25T08:27:02.739Z,1.03
2024-04-25T08:29:33.068Z,1.50
2024-04-25T08:32:06.031Z,2.50
2024-04-25T08:34:36.222Z,2.50
2024-04-25T08:37:06.564Z,1.50
2024-04-25T08:39:45.067Z,1.20
2024-04-25T08:42:16.007Z,1.57
2024-04-25T08:44:47.030Z,1.17
2024-04-25T08:47:20.691Z,1.33
2024-04-25T08:49:52.430Z,1.30
2024-04-25T08:52:24.348Z,0.90
2024-04-25T08:54:55.377Z,0.80
2024-04-25T08:57:28.495Z,1.60
2024-04-25T09:00:00.978Z,1.80
2024-04-25T09:02:34.620Z,2.23
2024-04-25T09:05:05.325Z,2.00
2024-04-25T09:07:57.056Z,1.00
2024-04-25T09:10:27.520Z,0.83
2024-04-25T09:12:57.943Z,5.67
2024-04-25T09:15:28.724Z,0.90
2024-04-25T09:18:03.048Z,1.33
2024-04-25T09:20:36.421Z,1.27
2024-04-25T09:23:06.592Z,1.60
2024-04-25T09:25:37.639Z,1.27
2024-04-25T09:28:10.340Z,2.43
2024-04-25T09:30:41.020Z,1.23
2024-04-25T09:33:14.112Z,1.57
2024-04-25T09:35:47.493Z,2.20
2024-04-25T09:38:17.781Z,1.30
2024-04-25T09:40:51.049Z,1.17
2024-04-25T09:43:21.921Z,2.57
2024-04-25T09:45:53.535Z,1.43
2024-04-25T09:48:27.241Z,1.80
2024-04-25T09:50:58.703Z,0.80
2024-04-25T09:53:33.826Z,1.27
2024-04-25T09:56:06.177Z,0.83
2024-04-25T09:58:43.021Z,2.07
2024-04-25T10:01:18.868Z,1.00
2024-04-25T10:04:17.312Z,1.17
2024-04-25T10:07:03.102Z,1.20
2024-04-25T10:09:33.730Z,1.73
2024-04-25T10:12:04.176Z,1.43
2024-04-25T10:14:34.780Z,1.70
2024-04-25T10:17:17.671Z,1.40
2024-04-25T10:20:08.508Z,1.47
2024-04-25T10:22:44.430Z,1.43
2024-04-25T10:25:20.151Z,1.47
2024-04-25T10:27:58.686Z,1.53
2024-04-25T10:30:36.186Z,1.93
2024-04-25T10:36:54.107Z,1.67
2024-04-25T10:39:45.911Z,1.00
2024-04-25T10:42:30.174Z,1.67
2024-04-25T10:45:18.786Z,1.70
2024-04-25T10:48:03.545Z,1.60
2024-04-25T10:54:01.475Z,1.83
2024-04-25T10:56:55.049Z,1.40
2024-04-25T10:59:32.430Z,1.40
2024-04-25T11:02:03.759Z,1.93
2024-04-25T11:04:37.355Z,0.93
2024-04-25T11:07:08.798Z,1.80
2024-04-25T11:09:39.575Z,0.90
2024-04-25T11:12:20.996Z,1.53
2024-04-25T11:14:51.783Z,1.70
2024-04-25T11:17:22.648Z,1.40
2024-04-25T11:19:53.330Z,1.07
2024-04-25T11:22:31.093Z,1.50
2024-04-25T11:25:17.033Z,3.07
2024-04-25T11:27:50.692Z,1.47
2024-04-25T11:30:21.197Z,1.70
2024-04-25T11:32:51.599Z,1.80
2024-04-25T11:35:23.577Z,1.50
2024-04-25T11:37:58.444Z,2.17
2024-04-25T11:40:41.384Z,2.23
2024-04-25T11:43:16.207Z,1.80
2024-04-25T11:45:47.096Z,1.10
2024-04-25T11:48:28.756Z,1.50
2024-04-25T11:51:00.869Z,1.17
2024-04-25T11:53:33.446Z,1.87
2024-04-25T11:56:03.710Z,2.00
2024-04-25T11:58:38.520Z,1.47
2024-04-25T12:01:09.137Z,2.50
2024-04-25T12:03:44.866Z,2.03
2024-04-25T12:06:16.414Z,1.10
2024-04-25T12:08:48.611Z,1.03
2024-04-25T12:11:20.803Z,1.43
2024-04-25T12:13:53.959Z,1.33
2024-04-25T12:16:31.764Z,0.97
2024-04-25T12:19:03.277Z,2.53
2024-04-25T12:21:33.649Z,1.50
2024-04-25T12:24:03.817Z,1.50
2024-04-25T12:26:34.199Z,1.20
2024-04-25T12:29:06.994Z,1.70
2024-04-25T12:31:37.190Z,2.97
2024-04-25T12:34:10.481Z,1.33
2024-04-25T12:36:44.849Z,1.30
2024-04-25T12:39:25.587Z,2.20
2024-04-25T12:41:57.329Z,1.60
2024-04-25T12:44:31.014Z,1.83
2024-04-25T12:47:01.929Z,1.57
2024-04-25T12:49:37.603Z,1.50
2024-04-25T12:52:14.642Z,1.83
2024-04-25T12:54:44.936Z,1.67
2024-04-25T12:57:24.543Z,2.57
2024-04-25T12:59:58.250Z,1.63
2024-04-25T13:02:28.531Z,2.87
2024-04-25T13:04:59.073Z,2.67
2024-04-25T13:07:29.319Z,2.23
2024-04-25T13:09:59.528Z,1.87
2024-04-25T13:12:29.707Z,1.50
2024-04-25T13:15:02.638Z,2.90
2024-04-25T13:17:33.570Z,2.70
2024-04-25T13:20:05.261Z,2.30
2024-04-25T13:22:35.474Z,3.13
2024-04-25T13:25:05.893Z,3.33
2024-04-25T13:27:36.214Z,3.60
2024-04-25T13:30:12.876Z,2.47
2024-04-25T13:32:43.987Z,3.97
2024-04-25T13:35:15.005Z,3.07
2024-04-25T13:37:45.294Z,2.90
2024-04-25T13:40:15.626Z,4.20
2024-04-25T13:42:50.348Z,3.87
2024-04-25T13:45:23.418Z,3.03
2024-04-25T13:47:53.804Z,2.63
2024-04-25T13:50:24.296Z,2.57
2024-04-25T13:52:54.484Z,3.27
2024-04-25T13:55:26.074Z,1.77
2024-04-25T13:57:56.315Z,3.13
2024-04-25T14:00:29.200Z,2.97
2024-04-25T14:02:59.478Z,3.67
2024-04-25T14:05:29.833Z,4.97
2024-04-25T14:08:00.314Z,2.20
2024-04-25T14:10:30.572Z,5.80
2024-04-25T14:13:00.894Z,4.63
2024-04-25T14:15:34.073Z,5.97
2024-04-25T14:18:04.472Z,3.97
2024-04-25T14:20:35.119Z,5.40
2024-04-25T14:23:07.277Z,5.17
2024-04-25T14:25:53.736Z,1.90
2024-04-25T14:31:36.286Z,4.90
2024-04-25T14:34:06.903Z,2.97
2024-04-25T14:36:37.378Z,3.83
2024-04-25T14:39:07.774Z,4.13
2024-04-25T14:41:38.046Z,3.47
2024-04-25T14:44:10.809Z,5.47
2024-04-25T14:46:44.182Z,5.77
2024-04-25T14:49:14.429Z,4.40
2024-04-25T14:51:44.693Z,2.93
2024-04-25T14:54:14.934Z,6.40
2024-04-25T14:56:47.068Z,6.37
2024-04-25T14:59:17.366Z,5.33
2024-04-25T15:01:54.632Z,2.97
2024-04-25T15:04:24.802Z,5.50
2024-04-25T15:06:55.046Z,4.77
2024-04-25T15:09:25.323Z,4.77
2024-04-25T15:12:06.407Z,7.83
2024-04-25T15:14:37.564Z,7.97
2024-04-25T15:17:10.867Z,5.17
2024-04-25T15:19:42.912Z,5.50
2024-04-25T15:22:13.538Z,4.27
2024-04-25T15:24:45.078Z,6.80
2024-04-25T15:27:17.050Z,4.73
2024-04-25T15:29:48.114Z,4.37
2024-04-25T15:32:21.392Z,6.67
2024-04-25T15:34:53.641Z,3.67
2024-04-25T15:37:25.083Z,4.33
2024-04-25T15:39:56.027Z,4.63
2024-04-25T15:42:26.275Z,7.07
2024-04-25T15:44:56.796Z,7.63
2024-04-25T15:47:29.902Z,2.83
2024-04-25T15:50:00.223Z,4.73
2024-04-25T15:52:33.842Z,9.93
2024-04-25T15:55:04.378Z,10.07
2024-04-25T15:57:34.634Z,6.77
2024-04-25T16:00:04.857Z,6.97
2024-04-25T16:02:37.865Z,10.50
2024-04-25T16:05:08.548Z,6.57
2024-04-25T16:07:38.720Z,7.37
2024-04-25T16:10:10.132Z,11.33
2024-04-25T16:12:40.538Z,10.13
2024-04-25T16:15:10.819Z,8.23
2024-04-25T16:17:44.262Z,12.17
2024-04-25T16:20:14.765Z,4.53
2024-04-25T16:22:45.043Z,9.43
2024-04-25T16:25:18.452Z,8.47
2024-04-25T16:27:48.636Z,7.43
2024-04-25T16:30:19.131Z,7.00
2024-04-25T16:32:52.291Z,6.57
2024-04-25T16:35:22.704Z,5.13
2024-04-25T16:37:54.193Z,7.20
2024-04-25T16:40:25.284Z,2.40
2024-04-25T16:42:56.122Z,5.50
2024-04-25T16:45:26.841Z,3.33
2024-04-25T16:47:59.804Z,4.17
2024-04-25T16:50:30.136Z,2.73
2024-04-25T16:53:00.465Z,0.90
2024-04-25T16:55:30.705Z,2.80
2024-04-25T16:58:01.132Z,3.87
2024-04-25T17:00:31.374Z,4.37
2024-04-25T17:03:04.456Z,2.63
2024-04-25T17:05:34.735Z,1.43
2024-04-25T17:08:04.918Z,2.33
2024-04-25T17:10:35.095Z,2.30
2024-04-25T17:13:05.607Z,0.80
2024-04-25T17:15:37.283Z,1.07
2024-04-25T17:18:12.112Z,1.27
2024-04-25T17:20:42.468Z,0.70
2024-04-25T17:23:12.786Z,0.90
2024-04-25T17:25:43.315Z,0.70
2024-04-25T17:28:13.615Z,1.40
2024-04-25T17:30:46.814Z,0.80
2024-04-25T17:33:19.826Z,0.60
2024-04-25T17:35:50.180Z,0.60
2024-04-25T17:38:20.477Z,0.80
2024-04-25T17:40:51.265Z,0.60
2024-04-25T17:43:21.537Z,0.60
2024-04-25T17:45:51.858Z,0.90
2024-04-25T17:48:24.892Z,0.60
2024-04-25T17:50:58.379Z,1.27
2024-04-25T17:53:28.623Z,1.23
2024-04-25T17:55:59.207Z,1.00
2024-04-25T17:58:29.484Z,1.80
2024-04-25T18:00:59.789Z,0.80
2024-04-25T18:03:32.698Z,0.90
2024-04-25T18:06:03.092Z,1.73
2024-04-25T18:08:33.351Z,1.03
2024-04-25T18:11:00.956Z,1.83
2024-04-25T18:13:31.199Z,0.97
2024-04-25T18:16:01.433Z,1.33
2024-04-25T18:18:37.069Z,1.77
2024-04-25T18:21:07.323Z,0.93
2024-04-25T18:23:37.555Z,3.60
2024-04-25T18:26:07.999Z,2.70
2024-04-25T18:28:38.245Z,3.40
2024-04-25T18:31:08.646Z,2.03
2024-04-25T18:33:41.590Z,2.03
2024-04-25T18:36:11.986Z,3.40
2024-04-25T18:38:42.212Z,3.70
2024-04-25T18:41:12.468Z,4.27
2024-04-25T18:43:43.134Z,4.60
2024-04-25T18:46:13.431Z,2.03
2024-04-25T18:48:43.783Z,3.73
2024-04-25T18:51:14.049Z,3.80
2024-04-25T18:53:44.322Z,3.67
2024-04-25T18:56:17.323Z,3.80
2024-04-25T18:58:47.712Z,4.43
2024-04-25T19:01:17.867Z,5.53
2024-04-25T19:03:50.883Z,5.87
2024-04-25T19:06:21.133Z,5.43
2024-04-25T19:08:53.743Z,5.03
2024-04-25T19:11:27.533Z,6.93
2024-04-25T19:13:58.333Z,4.27
2024-04-25T19:16:28.695Z,3.33
2024-04-25T19:19:01.511Z,3.20
2024-04-25T19:21:32.711Z,4.37
2024-04-25T19:24:05.296Z,5.30
2024-04-25T19:26:36.589Z,7.40
2024-04-25T19:29:06.914Z,7.13
2024-04-25T19:31:42.737Z,7.63
2024-04-25T19:34:22.333Z,1.90
2024-04-25T19:36:55.603Z,6.00
2024-04-25T19:39:26.204Z,2.17
2024-04-25T19:41:58.376Z,7.27
2024-04-25T19:44:28.600Z,4.63
2024-04-25T19:47:02.852Z,4.30
2024-04-25T19:49:37.631Z,2.10
2024-04-25T19:52:09.037Z,5.83
2024-04-25T19:54:39.191Z,3.73
2024-04-25T19:57:09.408Z,1.30
2024-04-25T19:59:44.989Z,1.67
2024-04-25T20:02:20.122Z,3.40
2024-04-25T20:04:53.298Z,7.17
2024-04-25T20:07:27.515Z,5.73
2024-04-25T20:09:57.824Z,4.17
2024-04-25T20:12:28.416Z,5.13
2024-04-25T20:15:02.588Z,6.47
2024-04-25T20:17:50.748Z,5.77
2024-04-25T20:20:39.590Z,5.03
2024-04-25T20:23:09.736Z,3.60
2024-04-25T20:25:39.883Z,1.33
2024-04-25T20:28:10.226Z,0.80
2024-04-25T20:30:40.388Z,1.03
2024-04-25T20:33:10.966Z,1.47
2024-04-25T20:35:43.946Z,1.43
2024-04-25T20:38:14.117Z,1.47
2024-04-25T20:40:44.390Z,0.83
2024-04-25T20:43:14.695Z,1.47
2024-04-25T20:45:44.973Z,1.30
2024-04-25T20:48:15.335Z,1.73
2024-04-25T20:50:48.347Z,1.57
2024-04-25T20:53:18.714Z,0.90
2024-04-25T20:55:49.028Z,0.83
2024-04-25T20:58:19.217Z,1.63
2024-04-25T21:00:52.030Z,0.93
2024-04-25T21:03:22.450Z,0.60
2024-04-25T21:05:56.914Z,1.20
2024-04-25T21:08:27.805Z,1.00
2024-04-25T21:10:58.161Z,0.60
2024-04-25T21:13:31.335Z,1.03
2024-04-25T21:16:01.760Z,1.07
2024-04-25T21:18:32.190Z,1.50
2024-04-25T21:21:05.293Z,1.33
2024-04-25T21:23:36.238Z,0.70
2024-04-25T21:26:06.381Z,0.60
2024-04-25T21:28:36.640Z,0.90
2024-04-25T21:31:07.050Z,0.67
2024-04-25T21:33:37.383Z,1.63
2024-04-25T21:36:10.652Z,0.67
2024-04-25T21:38:43.509Z,0.70
2024-04-25T21:41:13.804Z,1.17
2024-04-25T21:43:44.048Z,0.60
2024-04-25T21:46:14.241Z,0.60
2024-04-25T21:48:50.058Z,0.60
2024-04-25T21:51:24.670Z,0.60
2024-04-25T21:53:54.917Z,0.60
2024-04-25T21:56:25.402Z,0.60
2024-04-25T21:58:55.964Z,0.60
2024-04-25T22:01:30.600Z,0.60
2024-04-25T22:04:05.838Z,0.60
2024-04-25T22:06:38.625Z,0.70
2024-04-25T22:09:09.040Z,0.60
2024-04-25T22:11:39.269Z,0.90
2024-04-25T22:14:09.655Z,0.67
2024-04-25T22:16:39.892Z,0.70
2024-04-25T22:19:10.800Z,0.60
2024-04-25T22:21:43.769Z,0.60
2024-04-25T22:24:14.044Z,0.60
2024-04-25T22:26:44.209Z,0.53
2024-04-25T22:29:14.454Z,1.10
2024-04-25T22:31:44.597Z,0.93
2024-04-25T22:34:15.149Z,0.60
2024-04-25T22:36:47.979Z,0.70
2024-04-25T22:39:19.502Z,0.60
2024-04-25T22:41:49.709Z,1.17
2024-04-25T22:44:19.867Z,0.87
2024-04-25T22:46:50.137Z,1.80
2024-04-25T22:49:20.636Z,0.70
2024-04-25T22:51:53.553Z,2.03
2024-04-25T22:54:24.096Z,1.60
2024-04-25T22:56:54.317Z,0.50
2024-04-25T22:59:27.285Z,1.30
2024-04-25T23:01:57.514Z,1.40
2024-04-25T23:04:30.600Z,0.73
2024-04-25T23:07:03.664Z,0.60
2024-04-25T23:09:33.999Z,0.60
2024-04-25T23:12:04.350Z,0.60
2024-04-25T23:14:34.671Z,1.73
2024-04-25T23:17:04.876Z,0.80
2024-04-25T23:19:35.205Z,0.80
2024-04-25T23:22:08.110Z,1.13
2024-04-25T23:24:38.354Z,1.10
2024-04-25T23:27:08.621Z,0.83
2024-04-25T23:29:38.795Z,0.77
2024-04-25T23:32:09.228Z,0.90
2024-04-25T23:34:39.822Z,0.70
2024-04-25T23:37:12.747Z,0.87
2024-04-25T23:39:43.218Z,1.37
2024-04-25T23:42:13.564Z,0.97
2024-04-25T23:44:43.953Z,0.60
2024-04-25T23:47:14.265Z,0.80
2024-04-25T23:49:45.443Z,0.87
2024-04-25T23:52:20.693Z,0.60
2024-04-25T23:54:51.554Z,1.37
2024-04-25T23:57:22.061Z,1.40
2024-04-25T23:59:52.306Z,0.60
